Time;durP1;ratioP1;P1;durP2;ratioP2;P2;SDS_P1;SDS_P2;PMS_P1;PMS_P2;Temp;Humidity;BMP_temperature;BMP_pressure;BME280_temperature;BME280_humidity;BME280_pressure;Samples;Min_cycle;Max_cycle;Signal;HPM_P1;HPM_P2
2023/05/27 00:00:15;;;;;;;15.45;4.75;;;9.80;99.90;;;;;;5005208;28;20481;-58
2023/05/27 00:02:41;;;;;;;23.95;4.80;;;9.70;99.90;;;;;;5004304;28;20045;-58
2023/05/27 00:05:06;;;;;;;18.48;4.60;;;9.70;99.90;;;;;;5004513;28;20041;-57
2023/05/27 00:07:32;;;;;;;15.73;4.65;;;9.70;99.90;;;;;;5004554;28;20038;-58
2023/05/27 00:09:58;;;;;;;20.23;4.68;;;9.60;99.90;;;;;;5004253;28;20045;-57
2023/05/27 00:12:23;;;;;;;16.17;4.50;;;9.70;99.90;;;;;;4986622;28;20057;-58
2023/05/27 00:14:49;;;;;;;15.20;4.32;;;9.70;99.90;;;;;;5004440;28;20058;-59
2023/05/27 00:17:15;;;;;;;16.77;4.72;;;9.70;99.90;;;;;;5004779;28;20122;-58
2023/05/27 00:19:42;;;;;;;17.90;4.88;;;9.70;99.90;;;;;;5003608;28;20045;-58
2023/05/27 00:22:07;;;;;;;18.58;4.18;;;9.70;99.90;;;;;;5004792;28;20045;-58
2023/05/27 00:24:38;;;;;;;18.10;4.80;;;9.70;99.90;;;;;;5003609;28;20084;-58
2023/05/27 00:27:05;;;;;;;16.00;4.70;;;11.10;99.90;;;;;;5003887;28;20050;-58
2023/05/27 00:29:31;;;;;;;15.95;4.43;;;9.70;99.90;;;;;;5004467;28;20069;-57
2023/05/27 00:31:56;;;;;;;14.95;3.75;;;9.60;99.90;;;;;;5004406;28;20041;-58
2023/05/27 00:34:22;;;;;;;20.10;4.93;;;9.60;99.90;;;;;;4986962;28;20141;-58
2023/05/27 00:36:48;;;;;;;22.13;4.72;;;9.50;99.90;;;;;;5004340;28;20033;-58
2023/05/27 00:39:13;;;;;;;19.90;4.68;;;9.40;99.90;;;;;;4986119;28;20457;-57
2023/05/27 00:41:43;;;;;;;18.83;4.18;;;9.40;99.90;;;;;;4986786;28;20052;-57
2023/05/27 00:44:08;;;;;;;20.98;4.28;;;9.50;99.90;;;;;;5003873;28;20575;-58
2023/05/27 00:46:34;;;;;;;18.23;4.35;;;9.50;99.90;;;;;;5004335;28;20049;-58
2023/05/27 00:49:00;;;;;;;18.67;4.78;;;9.50;99.90;;;;;;5004227;28;20049;-57
2023/05/27 00:51:25;;;;;;;18.25;4.20;;;9.60;99.90;;;;;;5003819;28;20045;-59
2023/05/27 00:53:51;;;;;;;18.58;4.70;;;9.60;99.90;;;;;;5003481;28;20513;-58
2023/05/27 00:56:17;;;;;;;14.75;4.43;;;9.50;99.90;;;;;;5005708;28;20045;-58
2023/05/27 00:58:43;;;;;;;15.40;4.32;;;9.50;99.90;;;;;;4990431;28;20120;-58
2023/05/27 01:01:09;;;;;;;14.45;4.50;;;9.40;99.90;;;;;;5007195;28;20042;-58
2023/05/27 01:03:35;;;;;;;20.38;4.43;;;9.40;99.90;;;;;;5008015;28;20117;-58
2023/05/27 01:06:20;;;;;;;16.45;4.03;;;9.40;99.90;;;;;;5102874;22;20077;-56
2023/05/27 01:09:15;;;;;;;21.13;4.68;;;9.40;99.90;;;;;;5048235;28;20052;-56
2023/05/27 01:11:56;;;;;;;17.83;4.27;;;9.40;99.90;;;;;;5018382;28;20060;-59
2023/05/27 01:14:24;;;;;;;19.60;5.07;;;9.40;99.90;;;;;;5048845;28;20045;-57
2023/05/27 01:16:56;;;;;;;16.77;4.38;;;9.50;99.90;;;;;;5048937;28;20048;-58
2023/05/27 01:19:33;;;;;;;14.50;4.32;;;9.40;99.90;;;;;;5048725;28;20055;-54
2023/05/27 01:22:00;;;;;;;15.68;4.78;;;9.40;99.90;;;;;;5030886;28;20037;-55
2023/05/27 01:24:26;;;;;;;21.25;4.90;;;9.30;99.90;;;;;;5047912;28;20033;-55
2023/05/27 01:26:52;;;;;;;22.98;4.90;;;9.30;99.90;;;;;;5030833;28;20048;-55
2023/05/27 01:29:18;;;;;;;19.55;4.90;;;9.50;99.90;;;;;;5049042;28;20060;-56
2023/05/27 01:31:57;;;;;;;15.48;4.47;;;9.30;99.90;;;;;;5048500;28;20045;-57
2023/05/27 01:34:35;;;;;;;14.90;4.60;;;9.30;99.90;;;;;;5048729;28;20048;-54
2023/05/27 01:37:06;;;;;;;16.73;4.10;;;9.30;99.90;;;;;;5048418;28;20111;-51
2023/05/27 01:39:33;;;;;;;14.80;4.40;;;9.30;99.90;;;;;;5047937;28;20049;-55
2023/05/27 01:42:01;;;;;;;20.90;4.88;;;9.30;99.90;;;;;;5048649;28;20377;-52
2023/05/27 01:44:30;;;;;;;19.27;4.20;;;9.40;99.90;;;;;;5048120;28;20045;-54
2023/05/27 01:47:00;;;;;;;19.00;4.45;;;9.30;99.90;;;;;;5048148;28;20112;-56
2023/05/27 01:49:26;;;;;;;23.15;5.10;;;9.30;99.90;;;;;;5048113;28;20128;-58
2023/05/27 01:51:51;;;;;;;20.20;5.18;;;9.40;99.90;;;;;;5048782;28;20119;-50
2023/05/27 01:54:17;;;;;;;19.65;4.97;;;9.30;99.90;;;;;;5048039;28;20045;-54
2023/05/27 01:56:42;;;;;;;27.20;5.15;;;9.40;99.90;;;;;;5048344;28;20562;-57
2023/05/27 01:59:08;;;;;;;19.38;4.68;;;9.30;99.90;;;;;;5048048;28;20040;-57
2023/05/27 02:01:34;;;;;;;19.55;4.55;;;9.30;99.90;;;;;;5047514;28;20045;-55
2023/05/27 02:03:59;;;;;;;16.58;4.32;;;9.30;99.90;;;;;;5047936;28;20045;-57
2023/05/27 02:06:26;;;;;;;24.92;5.70;;;9.30;99.90;;;;;;5047537;28;20053;-59
2023/05/27 02:08:52;;;;;;;21.13;5.07;;;9.30;99.90;;;;;;5047281;28;20068;-58
2023/05/27 02:11:17;;;;;;;19.13;5.10;;;9.30;99.90;;;;;;5029901;28;20041;-58
2023/05/27 02:13:43;;;;;;;20.33;4.70;;;9.30;99.90;;;;;;5047900;28;20037;-55
2023/05/27 02:16:08;;;;;;;18.73;5.15;;;9.30;99.90;;;;;;5047679;28;20045;-58
2023/05/27 02:18:35;;;;;;;25.50;4.97;;;9.20;99.90;;;;;;5047586;28;20068;-51
2023/05/27 02:21:05;;;;;;;20.02;5.40;;;9.20;99.90;;;;;;5047850;28;20041;-53
2023/05/27 02:23:31;;;;;;;18.92;4.85;;;9.10;99.90;;;;;;5046887;28;20061;-58
2023/05/27 02:25:57;;;;;;;19.55;4.90;;;9.10;99.90;;;;;;5029439;28;20039;-57
2023/05/27 02:28:22;;;;;;;21.42;4.75;;;9.10;99.90;;;;;;5047768;28;20049;-57
2023/05/27 02:30:48;;;;;;;18.92;4.90;;;9.00;99.90;;;;;;5047462;28;20055;-58
2023/05/27 02:33:14;;;;;;;19.65;4.93;;;8.90;99.90;;;;;;5046705;28;20088;-58
2023/05/27 02:35:39;;;;;;;17.90;4.95;;;8.90;99.90;;;;;;5047683;28;20045;-49
2023/05/27 02:38:05;;;;;;;22.00;4.68;;;8.90;99.90;;;;;;5046652;28;20045;-56
2023/05/27 02:40:31;;;;;;;21.70;5.30;;;8.90;99.90;;;;;;5046833;28;20095;-57
2023/05/27 02:42:56;;;;;;;16.02;4.95;;;8.90;99.90;;;;;;5047427;28;20053;-57
2023/05/27 02:45:23;;;;;;;18.25;4.43;;;8.90;99.90;;;;;;5047207;28;20526;-57
2023/05/27 02:47:49;;;;;;;21.85;5.05;;;9.00;99.90;;;;;;5047250;28;20056;-58
2023/05/27 02:50:15;;;;;;;19.73;5.45;;;9.00;99.90;;;;;;5046827;28;20138;-56
2023/05/27 02:52:40;;;;;;;21.08;5.88;;;9.10;99.90;;;;;;5047254;28;20051;-58
2023/05/27 02:55:07;;;;;;;22.00;5.05;;;9.10;99.90;;;;;;5046062;28;20047;-58
2023/05/27 02:57:32;;;;;;;20.77;5.72;;;9.10;99.90;;;;;;5046614;28;20045;-53
2023/05/27 02:59:58;;;;;;;18.52;5.13;;;9.10;99.90;;;;;;5047215;28;20415;-58
2023/05/27 03:02:24;;;;;;;19.92;5.40;;;9.10;99.90;;;;;;5046960;28;20080;-58
2023/05/27 03:04:49;;;;;;;16.15;5.30;;;9.10;99.90;;;;;;5046761;28;20481;-58
2023/05/27 03:07:15;;;;;;;23.83;5.72;;;9.10;99.90;;;;;;5045998;28;20084;-55
2023/05/27 03:09:41;;;;;;;19.17;4.93;;;9.00;99.90;;;;;;5045886;28;20043;-56
2023/05/27 03:12:06;;;;;;;15.57;5.38;;;9.00;99.90;;;;;;5045618;28;20045;-57
2023/05/27 03:14:32;;;;;;;19.60;5.35;;;9.10;99.90;;;;;;5046071;28;20049;-52
2023/05/27 03:16:58;;;;;;;20.60;5.55;;;9.20;99.90;;;;;;5046342;28;20037;-50
2023/05/27 03:19:23;;;;;;;16.17;5.28;;;9.30;99.90;;;;;;5046620;28;20468;-58
2023/05/27 03:21:50;;;;;;;23.10;6.10;;;9.30;99.90;;;;;;5046552;28;20048;-58
2023/05/27 03:24:16;;;;;;;22.33;5.57;;;9.40;99.90;;;;;;5027480;28;20060;-57
2023/05/27 03:26:42;;;;;;;20.33;5.70;;;9.40;99.90;;;;;;5046725;28;20074;-57
2023/05/27 03:29:07;;;;;;;20.85;5.85;;;9.40;99.90;;;;;;5046364;28;20413;-58
2023/05/27 03:31:33;;;;;;;18.60;5.38;;;9.40;99.90;;;;;;5027767;28;20041;-58
2023/05/27 03:33:58;;;;;;;21.15;5.70;;;9.40;99.90;;;;;;5047105;28;20060;-52
2023/05/27 03:36:24;;;;;;;16.90;5.03;;;9.40;99.90;;;;;;5046192;28;20068;-56
2023/05/27 03:38:49;;;;;;;20.38;5.53;;;9.40;99.90;;;;;;5027712;28;20049;-57
2023/05/27 03:41:15;;;;;;;20.92;5.00;;;9.40;99.90;;;;;;5045484;28;20410;-57
2023/05/27 03:43:41;;;;;;;20.95;5.75;;;9.60;99.90;;;;;;5046445;28;20037;-55
2023/05/27 03:46:07;;;;;;;17.48;5.22;;;9.40;99.90;;;;;;5028774;28;20448;-54
2023/05/27 03:48:33;;;;;;;18.45;5.15;;;9.40;99.90;;;;;;5027382;28;20064;-58
2023/05/27 03:50:59;;;;;;;17.45;4.90;;;9.30;99.90;;;;;;5046373;28;20037;-54
2023/05/27 03:53:24;;;;;;;19.38;5.07;;;9.40;99.90;;;;;;5045105;28;20056;-58
2023/05/27 03:55:50;;;;;;;18.70;5.60;;;9.30;99.90;;;;;;5044947;28;20084;-54
2023/05/27 03:58:16;;;;;;;20.48;4.97;;;9.30;99.90;;;;;;5045458;28;20071;-58
2023/05/27 04:00:42;;;;;;;16.27;4.95;;;9.30;99.90;;;;;;5045317;28;20067;-52
2023/05/27 04:03:08;;;;;;;21.75;5.10;;;9.30;99.90;;;;;;5045232;28;20095;-55
2023/05/27 04:05:34;;;;;;;19.38;5.20;;;9.30;99.90;;;;;;5026894;28;20423;-54
2023/05/27 04:08:02;;;;;;;19.83;5.22;;;9.30;99.90;;;;;;5026806;28;20078;-56
2023/05/27 04:10:27;;;;;;;17.88;4.45;;;9.50;99.90;;;;;;5045905;28;20045;-58
2023/05/27 04:12:53;;;;;;;21.08;5.22;;;9.60;99.90;;;;;;5045514;28;20570;-55
2023/05/27 04:15:18;;;;;;;17.52;4.50;;;9.60;99.90;;;;;;5045570;28;20037;-56
2023/05/27 04:17:44;;;;;;;16.65;4.80;;;9.60;99.90;;;;;;5046172;28;20055;-49
2023/05/27 04:20:13;;;;;;;20.95;4.82;;;9.60;99.90;;;;;;5011615;28;20419;-58
2023/05/27 04:22:42;;;;;;;18.95;5.07;;;9.60;99.90;;;;;;5046023;28;20400;-49
2023/05/27 04:25:08;;;;;;;13.50;4.07;;;9.70;99.90;;;;;;5044961;28;20045;-56
2023/05/27 04:27:34;;;;;;;16.73;4.60;;;9.80;99.90;;;;;;5045326;28;20060;-54
2023/05/27 04:30:00;;;;;;;19.60;4.88;;;9.80;99.90;;;;;;5028341;28;20403;-57
2023/05/27 04:32:32;;;;;;;20.35;4.93;;;9.90;99.90;;;;;;5049687;28;20044;-54
2023/05/27 04:34:59;;;;;;;20.80;4.82;;;9.90;99.90;;;;;;5032596;28;20179;-53
2023/05/27 04:37:28;;;;;;;19.95;5.15;;;10.00;99.90;;;;;;5049335;28;20088;-57
2023/05/27 04:39:56;;;;;;;21.33;5.07;;;10.20;99.90;;;;;;5048663;28;20156;-53
2023/05/27 04:42:23;;;;;;;18.67;4.95;;;10.10;99.90;;;;;;5031344;28;20056;-57
2023/05/27 04:44:50;;;;;;;20.05;5.10;;;10.20;99.90;;;;;;5049354;28;20056;-58
2023/05/27 04:47:16;;;;;;;20.45;5.50;;;10.40;99.90;;;;;;5049432;28;20092;-58
2023/05/27 04:49:42;;;;;;;17.02;5.70;;;10.60;99.90;;;;;;5049464;28;20102;-56
2023/05/27 04:52:07;;;;;;;22.88;5.18;;;10.90;99.90;;;;;;5048914;28;20494;-58
2023/05/27 04:54:33;;;;;;;18.65;4.88;;;10.60;99.90;;;;;;5048460;28;20049;-58
2023/05/27 04:56:59;;;;;;;19.88;4.82;;;10.70;99.90;;;;;;5049628;28;20094;-57
2023/05/27 04:59:35;;;;;;;18.05;4.90;;;11.00;99.90;;;;;;5049334;28;20040;-57
2023/05/27 05:02:10;;;;;;;15.07;4.22;;;11.20;99.90;;;;;;5049219;28;20037;-59
2023/05/27 05:04:39;;;;;;;20.30;4.75;;;11.50;99.90;;;;;;5048804;28;20052;-54
2023/05/27 05:07:05;;;;;;;20.27;4.47;;;11.80;99.90;;;;;;5048774;28;20076;-53
2023/05/27 05:09:31;;;;;;;16.45;4.57;;;12.00;99.90;;;;;;5049106;28;20056;-57
2023/05/27 05:11:56;;;;;;;19.60;4.72;;;12.20;99.90;;;;;;5048842;28;20048;-57
2023/05/27 05:14:22;;;;;;;17.45;4.45;;;12.40;99.90;;;;;;5048765;28;20053;-57
2023/05/27 05:16:47;;;;;;;17.58;4.38;;;12.60;99.90;;;;;;5049571;28;20048;-57
2023/05/27 05:19:13;;;;;;;16.20;5.47;;;12.80;99.90;;;;;;5048356;28;20067;-60
2023/05/27 05:21:39;;;;;;;20.02;4.75;;;13.00;99.90;;;;;;5047915;28;20041;-62
2023/05/27 05:24:05;;;;;;;17.52;4.80;;;13.10;99.90;;;;;;5047590;28;20041;-49
2023/05/27 05:26:30;;;;;;;21.38;5.00;;;13.20;99.90;;;;;;5048921;28;20073;-59
2023/05/27 05:28:56;;;;;;;15.40;4.53;;;13.40;99.90;;;;;;5030523;28;20661;-57
2023/05/27 05:31:21;;;;;;;14.63;4.47;;;13.60;99.90;;;;;;5048036;28;20047;-58
2023/05/27 05:33:47;;;;;;;16.70;4.93;;;13.80;99.90;;;;;;5030882;28;20095;-61
2023/05/27 05:36:13;;;;;;;17.70;4.97;;;14.00;99.90;;;;;;5047959;28;20117;-60
2023/05/27 05:38:38;;;;;;;17.95;5.10;;;14.10;99.90;;;;;;5047821;28;20051;-61
2023/05/27 05:41:05;;;;;;;17.92;4.82;;;14.40;99.90;;;;;;5030527;28;20053;-59
2023/05/27 05:43:30;;;;;;;19.17;4.82;;;14.10;99.90;;;;;;5047835;28;20049;-60
2023/05/27 05:45:56;;;;;;;18.85;4.63;;;13.80;99.90;;;;;;5047994;28;20132;-60
2023/05/27 05:48:22;;;;;;;20.65;5.05;;;13.40;99.90;;;;;;5029510;28;20041;-60
2023/05/27 05:50:47;;;;;;;18.35;4.88;;;13.00;99.90;;;;;;5048445;28;20102;-53
2023/05/27 05:53:13;;;;;;;19.77;5.25;;;12.80;99.90;;;;;;5047110;28;20788;-61
2023/05/27 05:55:39;;;;;;;22.63;5.30;;;12.60;99.90;;;;;;5047547;28;20102;-57
2023/05/27 05:58:04;;;;;;;19.17;5.70;;;12.30;99.90;;;;;;5047986;28;20041;-57
2023/05/27 06:00:30;;;;;;;20.42;5.28;;;12.10;99.90;;;;;;5030261;28;20048;-61
2023/05/27 06:02:56;;;;;;;20.85;5.45;;;12.20;99.90;;;;;;5029841;28;20136;-60
2023/05/27 06:05:22;;;;;;;22.38;5.50;;;12.20;99.90;;;;;;5047184;28;20120;-60
2023/05/27 06:07:48;;;;;;;23.70;5.55;;;12.40;99.90;;;;;;5047258;28;20547;-59
2023/05/27 06:10:13;;;;;;;20.88;5.18;;;12.40;99.90;;;;;;5047927;28;20692;-59
2023/05/27 06:12:39;;;;;;;20.00;5.25;;;12.40;99.90;;;;;;5047026;28;20040;-59
2023/05/27 06:15:05;;;;;;;20.08;5.45;;;12.50;99.90;;;;;;5048064;28;20040;-60
2023/05/27 06:17:31;;;;;;;17.90;5.00;;;12.60;99.90;;;;;;5046929;28;20566;-58
2023/05/27 06:19:56;;;;;;;18.02;5.05;;;12.60;99.90;;;;;;5047437;28;20080;-60
2023/05/27 06:22:22;;;;;;;20.52;5.55;;;12.60;99.90;;;;;;5046527;28;20051;-57
2023/05/27 06:24:47;;;;;;;19.63;4.82;;;12.60;99.90;;;;;;5046569;28;20047;-55
2023/05/27 06:27:13;;;;;;;19.85;5.32;;;12.80;99.90;;;;;;5043696;28;20435;-60
2023/05/27 06:29:39;;;;;;;13.18;3.63;;;13.00;99.90;;;;;;5046755;28;20049;-53
2023/05/27 06:32:05;;;;;;;17.75;4.10;;;13.30;99.90;;;;;;5047484;28;20045;-58
2023/05/27 06:34:30;;;;;;;12.45;4.32;;;13.60;99.90;;;;;;5047179;28;20045;-57
2023/05/27 06:36:56;;;;;;;15.68;4.47;;;13.90;99.90;;;;;;5047084;28;20159;-57
2023/05/27 06:39:22;;;;;;;18.67;4.80;;;14.20;99.90;;;;;;5045439;28;20513;-60
2023/05/27 06:41:48;;;;;;;18.95;5.25;;;14.30;99.90;;;;;;5046365;28;20431;-59
2023/05/27 06:44:13;;;;;;;16.38;4.80;;;14.20;99.90;;;;;;5046753;28;20044;-57
2023/05/27 06:46:39;;;;;;;18.15;4.50;;;14.00;99.90;;;;;;5046456;28;20078;-54
2023/05/27 06:49:04;;;;;;;19.13;4.95;;;13.70;99.90;;;;;;5028918;28;20048;-60
2023/05/27 06:51:31;;;;;;;18.85;4.90;;;13.30;99.90;;;;;;5046662;28;20049;-55
2023/05/27 06:53:57;;;;;;;18.33;4.88;;;13.00;99.90;;;;;;5044487;28;20049;-60
2023/05/27 06:56:23;;;;;;;18.58;5.10;;;12.90;99.90;;;;;;5045568;28;20059;-61
2023/05/27 06:58:48;;;;;;;18.95;5.35;;;12.90;99.90;;;;;;5047156;28;20095;-58
2023/05/27 07:01:14;;;;;;;20.20;4.93;;;13.00;99.90;;;;;;5046312;28;20041;-61
2023/05/27 07:03:41;;;;;;;15.02;4.72;;;13.30;99.90;;;;;;5045640;28;20059;-61
2023/05/27 07:06:06;;;;;;;15.35;5.25;;;13.60;99.90;;;;;;5046333;28;20057;-56
2023/05/27 07:08:32;;;;;;;17.77;4.70;;;13.80;99.90;;;;;;5045380;28;20415;-61
2023/05/27 07:10:57;;;;;;;15.00;4.55;;;14.30;99.90;;;;;;5043782;28;20412;-56
2023/05/27 07:13:23;;;;;;;19.27;5.07;;;15.00;99.90;;;;;;5038270;28;20060;-60
2023/05/27 07:15:49;;;;;;;16.80;5.13;;;15.60;99.90;;;;;;5041326;28;20068;-61
2023/05/27 07:18:14;;;;;;;17.58;4.75;;;16.10;99.90;;;;;;5045395;28;20049;-60
2023/05/27 07:20:40;;;;;;;18.20;4.50;;;16.50;99.90;;;;;;5046142;28;20041;-60
2023/05/27 07:23:06;;;;;;;16.65;5.15;;;16.20;99.90;;;;;;5029747;28;20105;-61
2023/05/27 07:25:31;;;;;;;16.38;4.75;;;15.70;99.90;;;;;;5026144;28;20049;-60
2023/05/27 07:27:57;;;;;;;20.15;4.45;;;15.50;99.90;;;;;;5041860;28;20451;-55
2023/05/27 07:30:23;;;;;;;14.98;4.90;;;15.60;99.90;;;;;;5023866;28;20060;-62
2023/05/27 07:32:48;;;;;;;19.08;4.80;;;15.70;99.90;;;;;;5035545;28;20064;-60
2023/05/27 07:35:14;;;;;;;17.90;4.60;;;15.90;99.90;;;;;;5029976;28;20622;-61
2023/05/27 07:37:40;;;;;;;18.05;4.60;;;16.00;99.90;;;;;;5025408;28;20436;-60
2023/05/27 07:40:06;;;;;;;12.60;4.38;;;16.20;99.90;;;;;;5008059;28;20045;-60
2023/05/27 07:42:32;;;;;;;13.55;4.25;;;16.50;99.90;;;;;;5026027;28;20037;-60
2023/05/27 07:44:57;;;;;;;14.68;4.53;;;16.50;99.90;;;;;;5024166;28;20500;-57
2023/05/27 07:47:23;;;;;;;11.13;4.20;;;16.50;99.90;;;;;;5023272;28;20462;-57
2023/05/27 07:49:50;;;;;;;14.55;4.80;;;16.50;99.90;;;;;;5024164;28;20045;-56
2023/05/27 07:52:16;;;;;;;15.18;4.60;;;16.60;99.90;;;;;;5023892;28;20083;-57
2023/05/27 07:54:41;;;;;;;15.23;4.72;;;16.80;99.90;;;;;;5005621;28;20081;-58
2023/05/27 07:57:08;;;;;;;11.75;3.88;;;17.00;99.90;;;;;;5006240;28;20878;-61
2023/05/27 07:59:33;;;;;;;14.68;4.25;;;16.90;99.90;;;;;;5023874;28;20421;-61
2023/05/27 08:01:59;;;;;;;13.73;5.15;;;16.80;99.90;;;;;;5023776;28;20049;-53
2023/05/27 08:04:24;;;;;;;15.55;4.28;;;16.80;99.90;;;;;;5023331;28;20395;-62
2023/05/27 08:06:50;;;;;;;18.67;4.70;;;17.10;99.90;;;;;;4989393;28;20061;-61
2023/05/27 08:09:16;;;;;;;14.23;4.50;;;17.10;99.90;;;;;;5030625;28;20033;-61
2023/05/27 08:11:41;;;;;;;17.00;5.05;;;17.30;99.90;;;;;;5016126;28;20037;-60
2023/05/27 08:14:07;;;;;;;13.70;4.32;;;17.60;99.90;;;;;;5023710;28;20045;-53
2023/05/27 08:16:32;;;;;;;14.18;4.30;;;17.60;99.90;;;;;;5023858;28;20257;-55
2023/05/27 08:18:58;;;;;;;13.52;4.43;;;17.70;99.90;;;;;;5022454;28;20148;-62
2023/05/27 08:21:24;;;;;;;13.20;4.65;;;17.70;99.90;;;;;;5021866;28;20436;-58
2023/05/27 08:23:50;;;;;;;12.43;4.45;;;17.70;99.90;;;;;;5023070;28;20089;-62
2023/05/27 08:26:16;;;;;;;13.85;4.18;;;17.50;99.90;;;;;;5023670;28;20447;-55
2023/05/27 08:28:41;;;;;;;15.68;3.83;;;17.50;99.90;;;;;;5023514;28;20052;-61
2023/05/27 08:31:07;;;;;;;17.00;4.05;;;17.40;99.00;;;;;;5031700;28;20565;-52
2023/05/27 08:33:33;;;;;;;12.52;3.55;;;17.20;99.40;;;;;;5043653;28;20041;-61
2023/05/27 08:35:58;;;;;;;13.82;4.20;;;17.10;99.80;;;;;;5025173;28;20041;-61
2023/05/27 08:38:24;;;;;;;15.23;3.92;;;17.20;99.90;;;;;;5038528;28;20039;-61
2023/05/27 08:40:49;;;;;;;14.57;4.00;;;17.30;99.80;;;;;;5031148;28;20041;-57
2023/05/27 08:43:16;;;;;;;9.20;3.25;;;17.50;98.80;;;;;;5005848;28;20060;-60
2023/05/27 08:45:43;;;;;;;12.40;3.75;;;17.40;98.80;;;;;;5022651;28;20507;-58
2023/05/27 08:48:09;;;;;;;16.02;3.92;;;17.40;98.80;;;;;;5022951;28;20541;-60
2023/05/27 08:50:35;;;;;;;18.00;3.55;;;17.30;99.00;;;;;;5023241;28;20073;-59
2023/05/27 08:53:02;;;;;;;14.02;4.05;;;17.40;99.30;;;;;;5022553;28;20045;-57
2023/05/27 08:55:30;;;;;;;11.93;3.72;;;17.80;99.10;;;;;;5022390;28;20038;-59
2023/05/27 08:57:57;;;;;;;12.07;3.70;;;17.90;98.60;;;;;;5022833;28;20034;-61
2023/05/27 09:00:23;;;;;;;13.88;3.70;;;18.20;98.80;;;;;;5022754;28;20046;-61
2023/05/27 09:02:49;;;;;;;16.08;4.10;;;18.40;98.30;;;;;;4988262;28;20168;-61
2023/05/27 09:05:16;;;;;;;16.58;3.70;;;18.50;98.00;;;;;;5023062;28;20057;-56
2023/05/27 09:07:42;;;;;;;13.48;4.25;;;18.70;97.90;;;;;;5004889;28;20420;-62
2023/05/27 09:10:08;;;;;;;11.50;3.97;;;18.80;97.80;;;;;;5022725;28;20579;-51
2023/05/27 09:12:35;;;;;;;15.52;3.92;;;19.00;97.90;;;;;;5022790;28;20729;-58
2023/05/27 09:15:03;;;;;;;12.60;4.03;;;19.10;97.70;;;;;;5022675;28;20171;-59
2023/05/27 09:17:29;;;;;;;13.40;4.30;;;19.50;97.30;;;;;;5024396;28;20099;-60
2023/05/27 09:19:55;;;;;;;13.93;4.30;;;19.60;95.40;;;;;;5026134;28;20072;-58
2023/05/27 09:22:26;;;;;;;12.85;3.80;;;19.30;95.30;;;;;;5026220;28;20561;-56
2023/05/27 09:24:56;;;;;;;15.45;4.00;;;19.10;95.60;;;;;;5008995;28;20443;-58
2023/05/27 09:27:26;;;;;;;12.63;4.03;;;19.00;95.10;;;;;;5025987;28;20042;-60
2023/05/27 09:29:51;;;;;;;13.50;3.80;;;18.70;96.40;;;;;;5026829;28;20124;-59
2023/05/27 09:32:32;;;;;;;13.00;4.50;;;18.80;96.30;;;;;;5026842;28;20129;-60
2023/05/27 09:35:00;;;;;;;16.63;4.30;;;18.90;96.20;;;;;;5026576;28;20080;-60
2023/05/27 09:37:34;;;;;;;15.63;4.30;;;19.20;96.40;;;;;;5025630;28;20261;-60
2023/05/27 09:40:08;;;;;;;13.25;4.82;;;19.50;96.50;;;;;;5033423;28;20049;-59
2023/05/27 09:42:43;;;;;;;13.20;4.05;;;19.80;96.10;;;;;;5032050;28;20043;-57
2023/05/27 09:45:12;;;;;;;13.45;4.20;;;20.00;94.40;;;;;;5037974;28;20114;-57
2023/05/27 09:47:46;;;;;;;12.32;4.65;;;20.00;94.60;;;;;;5038097;28;20045;-61
2023/05/27 09:50:14;;;;;;;13.95;5.03;;;20.00;94.50;;;;;;5037909;28;20353;-56
2023/05/27 09:52:41;;;;;;;15.80;4.63;;;20.10;95.30;;;;;;5036587;28;20135;-61
2023/05/27 09:55:09;;;;;;;12.43;4.32;;;20.20;95.20;;;;;;5038013;28;20103;-56
2023/05/27 09:57:35;;;;;;;14.10;4.97;;;20.10;94.50;;;;;;5047790;28;20145;-61
2023/05/27 10:00:15;;;;;;;14.18;4.53;;;20.00;94.10;;;;;;5029223;28;20048;-49
2023/05/27 10:02:45;;;;;;;12.07;5.25;;;19.90;95.10;;;;;;5040704;28;20068;-50
2023/05/27 10:05:13;;;;;;;16.48;4.60;;;20.30;95.40;;;;;;5045592;28;20353;-51
2023/05/27 10:07:40;;;;;;;16.58;4.82;;;20.60;95.00;;;;;;5044301;28;20103;-49
2023/05/27 10:10:17;;;;;;;13.07;4.63;;;20.80;94.40;;;;;;5046730;28;20451;-52
2023/05/27 10:12:45;;;;;;;12.05;4.78;;;20.70;93.60;;;;;;5044520;28;20068;-50
2023/05/27 10:15:24;;;;;;;15.45;5.18;;;20.40;94.10;;;;;;5045445;28;20416;-49
2023/05/27 10:18:11;;;;;;;12.23;4.60;;;20.50;94.20;;;;;;5045365;28;20110;-49
2023/05/27 10:20:38;;;;;;;12.40;4.70;;;20.60;94.40;;;;;;5045303;28;20041;-51
2023/05/27 10:23:15;;;;;;;14.88;4.65;;;20.70;92.30;;;;;;5044539;28;20041;-49
2023/05/27 10:25:49;;;;;;;11.15;4.72;;;20.40;93.10;;;;;;5044539;28;20514;-52
2023/05/27 10:28:41;;;;;;;14.98;5.00;;;20.30;93.20;;;;;;5045334;28;20045;-51
2023/05/27 10:31:09;;;;;;;11.43;4.53;;;20.60;93.80;;;;;;5045329;28;20049;-48
2023/05/27 10:33:40;;;;;;;12.52;4.80;;;20.80;93.10;;;;;;5045040;28;20040;-51
2023/05/27 10:36:23;;;;;;;11.20;4.50;;;20.90;93.40;;;;;;5044282;28;20044;-51
2023/05/27 10:39:05;;;;;;;14.27;5.00;;;21.10;92.20;;;;;;5044717;28;20099;-47
2023/05/27 10:41:50;;;;;;;15.15;4.93;;;21.20;92.40;;;;;;5044474;28;20466;-50
2023/05/27 10:44:39;;;;;;;12.77;5.00;;;21.40;92.50;;;;;;5044820;28;20055;-56
2023/05/27 10:47:15;;;;;;;15.57;4.80;;;21.40;92.20;;;;;;5044596;28;20055;-49
2023/05/27 10:49:45;;;;;;;13.65;4.47;;;21.70;91.80;;;;;;5044813;28;20099;-52
2023/05/27 10:52:17;;;;;;;14.10;4.82;;;21.50;93.00;;;;;;5043706;28;20090;-49
2023/05/27 10:54:46;;;;;;;12.90;4.80;;;21.50;93.00;;;;;;5044380;28;20084;-49
2023/05/27 10:57:12;;;;;;;11.40;5.03;;;21.60;92.90;;;;;;5044289;28;20116;-47
2023/05/27 10:59:55;;;;;;;15.88;6.07;;;21.70;92.90;;;;;;5026391;28;20045;-60
2023/05/27 11:02:22;;;;;;;17.77;5.80;;;21.70;92.30;;;;;;5026899;28;20045;-56
2023/05/27 11:04:51;;;;;;;13.35;4.93;;;21.70;92.80;;;;;;5043799;28;20227;-59
2023/05/27 11:07:21;;;;;;;12.38;4.40;;;21.80;92.20;;;;;;5043380;28;20051;-54
2023/05/27 11:09:48;;;;;;;12.00;4.70;;;21.70;92.00;;;;;;5044036;28;20096;-57
2023/05/27 11:12:18;;;;;;;16.75;5.13;;;21.80;92.40;;;;;;5043821;28;20450;-59
2023/05/27 11:14:45;;;;;;;15.45;4.97;;;21.90;92.70;;;;;;5044172;28;20116;-49
2023/05/27 11:17:12;;;;;;;15.43;5.72;;;22.10;92.80;;;;;;5043892;28;20091;-50
2023/05/27 11:19:41;;;;;;;13.02;4.90;;;22.10;92.50;;;;;;5027921;28;20057;-50
2023/05/27 11:22:10;;;;;;;11.00;4.65;;;22.20;92.80;;;;;;5045377;28;20148;-51
2023/05/27 11:24:37;;;;;;;10.13;4.80;;;22.20;92.00;;;;;;5028273;28;20049;-49
2023/05/27 11:27:10;;;;;;;12.52;4.72;;;21.90;92.80;;;;;;5045523;28;20488;-50
2023/05/27 11:29:39;;;;;;;15.63;4.88;;;21.70;92.50;;;;;;5043130;28;20613;-51
2023/05/27 11:32:05;;;;;;;13.60;4.80;;;21.80;93.10;;;;;;5045527;28;20052;-49
2023/05/27 11:34:34;;;;;;;10.90;4.30;;;21.90;93.50;;;;;;5025475;28;20060;-47
2023/05/27 11:37:04;;;;;;;14.65;4.85;;;22.10;92.90;;;;;;5043003;28;20535;-48
2023/05/27 11:39:31;;;;;;;16.20;5.45;;;22.20;93.00;;;;;;5043187;28;20407;-48
2023/05/27 11:41:56;;;;;;;18.05;5.55;;;22.30;92.90;;;;;;5043742;28;20135;-48
2023/05/27 11:44:24;;;;;;;14.77;5.50;;;22.30;93.20;;;;;;5043367;28;20128;-51
2023/05/27 11:46:51;;;;;;;12.07;5.05;;;22.40;93.20;;;;;;5025949;28;20048;-48
2023/05/27 11:49:18;;;;;;;12.65;5.18;;;22.30;93.50;;;;;;5043406;28;20427;-48
2023/05/27 11:51:46;;;;;;;12.23;5.00;;;22.40;93.00;;;;;;5042531;28;20091;-47
2023/05/27 11:54:20;;;;;;;16.48;5.57;;;22.40;92.70;;;;;;5043342;28;20093;-49
2023/05/27 11:56:47;;;;;;;14.77;5.40;;;22.50;91.80;;;;;;5042729;28;20048;-55
2023/05/27 11:59:13;;;;;;;12.55;5.13;;;22.40;92.40;;;;;;5037968;28;20052;-50
2023/05/27 12:01:43;;;;;;;10.98;5.38;;;22.40;92.40;;;;;;5041160;28;20041;-53
2023/05/27 12:04:08;;;;;;;19.48;5.45;;;22.20;91.90;;;;;;5042063;28;20048;-49
2023/05/27 12:06:40;;;;;;;13.32;4.75;;;22.20;92.10;;;;;;5042099;28;20152;-52
2023/05/27 12:09:07;;;;;;;11.25;4.90;;;22.40;92.80;;;;;;5042685;28;20333;-49
2023/05/27 12:11:34;;;;;;;15.43;4.93;;;22.20;92.20;;;;;;5042175;28;20048;-48
2023/05/27 12:14:00;;;;;;;15.82;5.53;;;22.20;92.40;;;;;;5034880;28;20087;-52
2023/05/27 12:16:26;;;;;;;13.23;5.53;;;22.30;91.40;;;;;;5042232;28;20529;-49
2023/05/27 12:18:52;;;;;;;11.75;4.63;;;22.30;90.90;;;;;;5010037;28;20056;-50
2023/05/27 12:21:18;;;;;;;12.73;4.85;;;22.20;91.60;;;;;;5004961;28;20080;-49
2023/05/27 12:23:44;;;;;;;12.25;5.05;;;22.30;91.70;;;;;;5021566;28;20044;-49
2023/05/27 12:26:11;;;;;;;14.93;5.00;;;22.40;92.00;;;;;;5022746;28;20037;-49
2023/05/27 12:28:37;;;;;;;15.13;5.60;;;22.50;92.20;;;;;;5024830;28;20040;-49
2023/05/27 12:31:03;;;;;;;15.00;5.80;;;22.40;91.90;;;;;;5030584;28;20049;-47
2023/05/27 12:33:28;;;;;;;14.35;5.13;;;22.40;91.10;;;;;;5022794;28;20052;-49
2023/05/27 12:35:54;;;;;;;17.70;5.25;;;22.40;90.10;;;;;;5004314;28;20041;-48
2023/05/27 12:38:20;;;;;;;11.68;4.55;;;22.20;90.20;;;;;;5026959;28;20232;-51
2023/05/27 12:40:45;;;;;;;13.40;4.80;;;22.20;91.20;;;;;;5010274;28;20045;-51